Paros, Greece
Current Conditions -  °F | °C
As of 6:20 AM on Saturday 25 Oct 2014 (Local Time) from LGSO Reporting Station
NA  
Wind Chill: 64°   Ceiling: NA
Heat Index: 64°   Visibility: NA
Dew Point: 52°   Wind: 18mph
Humidity: 64%   Direction: 230°SW
Pressure: 29.74"   Gusts: NA
Location:  37.08°N, 25.15°E
Report Text: LGSO 250320Z AUTO 23016KT 200V260 //// // ////// 18/11 Q1007 RE//
Loading
Personal Weather Stations






























Interactive Weather Map
Tropical Storm Tracking
New forecast layout! Learn more

10-Day Weather Forecast

Advertisements
Track Severe Weather on mobile